AFR2511 LFPG-SOCA
Flight info
| Callsign | AFR2511 |
|---|---|
| Flight time | N/A |
| Altitude | 33000 |
| Route | LGL UT176 ROLEN UZ15 DIDAK DCT AKEMO DCT RIVAK/M082F330 UN460 SIVIR DCT PASAS DCT 44N015W/M082F340 40N022W 35N029W/M082F360 30N034W 24N040W 20N043W/N0481F360 15N045W/N0480F380 DCT PANON DCT MEBLI DCT REKIM REKIM1E |
| Aircraft | B77W/H-SDE1E2E3FGHIJ2J3J4J5M1RWXY/LB1D1 |
Departure
| Time | N/A |
|---|---|
| Airport | Charles de Gaulle International Airport (LFPG) |
Arrival
| Time | 2026-04-13 19:04 |
|---|---|
| Airport | Cayenne – Félix Eboué Airport (SOCA) |
| Time | Latitude | Longitude | Altitude | Speed | Heading |
|---|---|---|---|---|---|
| 2026-04-13 18:18 | 8.74814 | -49.85053 | 37946 ft | 456 kts | 236° |
| 2026-04-13 18:18 | 8.73014 | -49.87695 | 37945 ft | 456 kts | 236° |
| 2026-04-13 18:19 | 8.69437 | -49.92945 | 37945 ft | 456 kts | 235° |
| 2026-04-13 18:19 | 8.65836 | -49.98227 | 37942 ft | 457 kts | 235° |
| 2026-04-13 18:20 | 8.62229 | -50.03519 | 37946 ft | 457 kts | 235° |
| 2026-04-13 18:20 | 8.58616 | -50.08816 | 37946 ft | 458 kts | 235° |
| 2026-04-13 18:21 | 8.55025 | -50.14083 | 37945 ft | 458 kts | 235° |
| 2026-04-13 18:21 | 8.51406 | -50.19386 | 37944 ft | 458 kts | 235° |
| 2026-04-13 18:22 | 8.47484 | -50.24453 | 37952 ft | 459 kts | 226° |
| 2026-04-13 18:22 | 8.42680 | -50.28698 | 37946 ft | 460 kts | 216° |
| 2026-04-13 18:23 | 8.37371 | -50.32234 | 37951 ft | 461 kts | 214° |
| 2026-04-13 18:23 | 8.31976 | -50.35730 | 37942 ft | 461 kts | 214° |
| 2026-04-13 18:24 | 8.26596 | -50.39250 | 37940 ft | 461 kts | 214° |
| 2026-04-13 18:24 | 8.21236 | -50.42786 | 37939 ft | 461 kts | 214° |
| 2026-04-13 18:25 | 8.15875 | -50.46332 | 37934 ft | 461 kts | 214° |
| 2026-04-13 18:25 | 8.10550 | -50.49855 | 37941 ft | 461 kts | 214° |
| 2026-04-13 18:26 | 8.05185 | -50.53401 | 37941 ft | 461 kts | 214° |
| 2026-04-13 18:26 | 7.99815 | -50.56948 | 37938 ft | 461 kts | 214° |
| 2026-04-13 18:27 | 7.94443 | -50.60497 | 37938 ft | 462 kts | 214° |
| 2026-04-13 18:27 | 7.89108 | -50.64016 | 37930 ft | 462 kts | 214° |
| 2026-04-13 18:28 | 7.83729 | -50.67565 | 37935 ft | 462 kts | 214° |
| 2026-04-13 18:28 | 7.78346 | -50.71118 | 37935 ft | 462 kts | 214° |
| 2026-04-13 18:29 | 7.72960 | -50.74672 | 37931 ft | 463 kts | 214° |
| 2026-04-13 18:29 | 7.67605 | -50.78202 | 37933 ft | 463 kts | 214° |
| 2026-04-13 18:30 | 7.62218 | -50.81753 | 37924 ft | 463 kts | 214° |
| 2026-04-13 18:30 | 7.56820 | -50.85309 | 37934 ft | 464 kts | 214° |
| 2026-04-13 18:31 | 7.51418 | -50.88868 | 37929 ft | 464 kts | 214° |
| 2026-04-13 18:31 | 7.46011 | -50.92429 | 37928 ft | 464 kts | 214° |
| 2026-04-13 18:32 | 7.40635 | -50.95968 | 37929 ft | 465 kts | 214° |
| 2026-04-13 18:32 | 7.35226 | -50.99529 | 37927 ft | 465 kts | 214° |
| 2026-04-13 18:33 | 7.29804 | -51.03097 | 37929 ft | 466 kts | 214° |
| 2026-04-13 18:33 | 7.24377 | -51.06667 | 37930 ft | 466 kts | 214° |
| 2026-04-13 18:34 | 7.16263 | -51.12001 | 37925 ft | 466 kts | 214° |
| 2026-04-13 18:34 | 7.10827 | -51.15574 | 37926 ft | 467 kts | 214° |
| 2026-04-13 18:35 | 7.05388 | -51.19148 | 37921 ft | 467 kts | 214° |
| 2026-04-13 18:35 | 6.99954 | -51.22718 | 37925 ft | 467 kts | 214° |
| 2026-04-13 18:36 | 6.94510 | -51.26293 | 37919 ft | 467 kts | 214° |
| 2026-04-13 18:36 | 6.89101 | -51.29846 | 37920 ft | 467 kts | 214° |
| 2026-04-13 18:37 | 6.83653 | -51.33420 | 37920 ft | 467 kts | 214° |
| 2026-04-13 18:37 | 6.78203 | -51.36995 | 37911 ft | 468 kts | 214° |
| 2026-04-13 18:38 | 6.72759 | -51.40568 | 37920 ft | 468 kts | 214° |
| 2026-04-13 18:38 | 6.67300 | -51.44150 | 37916 ft | 468 kts | 214° |
| 2026-04-13 18:39 | 6.61884 | -51.47698 | 37916 ft | 468 kts | 213° |
| 2026-04-13 18:39 | 6.56426 | -51.51275 | 37916 ft | 468 kts | 214° |
| 2026-04-13 18:40 | 6.50969 | -51.54853 | 37917 ft | 468 kts | 213° |
| 2026-04-13 18:40 | 6.45510 | -51.58429 | 37915 ft | 468 kts | 214° |
| 2026-04-13 18:41 | 6.40094 | -51.61975 | 37910 ft | 468 kts | 214° |
| 2026-04-13 18:41 | 6.34640 | -51.65548 | 37910 ft | 466 kts | 213° |
| 2026-04-13 18:42 | 6.31928 | -51.67323 | 37591 ft | 465 kts | 213° |
| 2026-04-13 18:42 | 6.29215 | -51.69098 | 37042 ft | 463 kts | 213° |
| 2026-04-13 18:42 | 6.26523 | -51.70861 | 36423 ft | 461 kts | 213° |
| 2026-04-13 18:42 | 6.23834 | -51.72622 | 35714 ft | 461 kts | 212° |
| 2026-04-13 18:43 | 6.21136 | -51.74389 | 34793 ft | 466 kts | 212° |
| 2026-04-13 18:43 | 6.18431 | -51.76159 | 33962 ft | 471 kts | 211° |
| 2026-04-13 18:43 | 6.15686 | -51.77954 | 33104 ft | 472 kts | 212° |
| 2026-04-13 18:43 | 6.12926 | -51.79758 | 32186 ft | 475 kts | 212° |
| 2026-04-13 18:44 | 6.10161 | -51.81565 | 31440 ft | 474 kts | 212° |
| 2026-04-13 18:44 | 6.07402 | -51.83368 | 30776 ft | 472 kts | 213° |
| 2026-04-13 18:44 | 6.04655 | -51.85163 | 30154 ft | 470 kts | 214° |
| 2026-04-13 18:44 | 6.01919 | -51.86953 | 29441 ft | 468 kts | 214° |
| 2026-04-13 18:45 | 5.99196 | -51.88735 | 28772 ft | 466 kts | 214° |
| 2026-04-13 18:45 | 5.96527 | -51.90482 | 28129 ft | 462 kts | 213° |
| 2026-04-13 18:45 | 5.93838 | -51.92239 | 27482 ft | 459 kts | 213° |
| 2026-04-13 18:45 | 5.91168 | -51.93983 | 26870 ft | 456 kts | 213° |
| 2026-04-13 18:46 | 5.88515 | -51.95716 | 26255 ft | 453 kts | 213° |
| 2026-04-13 18:46 | 5.85878 | -51.97439 | 25645 ft | 451 kts | 213° |
| 2026-04-13 18:46 | 5.83254 | -51.99152 | 25026 ft | 449 kts | 213° |
| 2026-04-13 18:46 | 5.80650 | -52.00854 | 24410 ft | 447 kts | 213° |
| 2026-04-13 18:47 | 5.78052 | -52.02552 | 23800 ft | 445 kts | 213° |
| 2026-04-13 18:47 | 5.75465 | -52.04241 | 23140 ft | 442 kts | 213° |
| 2026-04-13 18:47 | 5.72893 | -52.05922 | 22484 ft | 439 kts | 213° |
| 2026-04-13 18:47 | 5.70377 | -52.07564 | 21876 ft | 435 kts | 214° |
| 2026-04-13 18:48 | 5.67850 | -52.09214 | 21283 ft | 431 kts | 213° |
| 2026-04-13 18:48 | 5.65346 | -52.10850 | 20711 ft | 428 kts | 214° |
| 2026-04-13 18:48 | 5.62860 | -52.12472 | 20133 ft | 424 kts | 214° |
| 2026-04-13 18:48 | 5.60393 | -52.14082 | 19564 ft | 422 kts | 214° |
| 2026-04-13 18:49 | 5.57939 | -52.15685 | 18990 ft | 420 kts | 214° |
| 2026-04-13 18:49 | 5.55496 | -52.17281 | 18421 ft | 418 kts | 214° |
| 2026-04-13 18:49 | 5.53068 | -52.18868 | 17793 ft | 417 kts | 214° |
| 2026-04-13 18:49 | 5.50639 | -52.20455 | 17188 ft | 414 kts | 213° |
| 2026-04-13 18:50 | 5.48266 | -52.22003 | 16615 ft | 412 kts | 213° |
| 2026-04-13 18:50 | 5.45849 | -52.23538 | 16034 ft | 410 kts | 210° |
| 2026-04-13 18:50 | 5.43359 | -52.24924 | 15474 ft | 408 kts | 207° |
| 2026-04-13 18:50 | 5.40839 | -52.26233 | 14907 ft | 407 kts | 205° |
| 2026-04-13 18:51 | 5.38313 | -52.27522 | 14331 ft | 407 kts | 206° |
| 2026-04-13 18:51 | 5.35793 | -52.28816 | 13781 ft | 407 kts | 205° |
| 2026-04-13 18:51 | 5.33281 | -52.30121 | 13147 ft | 406 kts | 205° |
| 2026-04-13 18:51 | 5.30819 | -52.31412 | 12571 ft | 399 kts | 205° |
| 2026-04-13 18:52 | 5.28391 | -52.32695 | 12017 ft | 391 kts | 206° |
| 2026-04-13 18:52 | 5.26014 | -52.33955 | 11482 ft | 387 kts | 205° |
| 2026-04-13 18:52 | 5.23631 | -52.35218 | 10955 ft | 388 kts | 206° |
| 2026-04-13 18:52 | 5.21264 | -52.36473 | 10733 ft | 380 kts | 206° |
| 2026-04-13 18:53 | 5.18957 | -52.37698 | 10533 ft | 371 kts | 206° |
| 2026-04-13 18:53 | 5.16703 | -52.38893 | 10388 ft | 360 kts | 205° |
| 2026-04-13 18:53 | 5.14549 | -52.40034 | 10205 ft | 341 kts | 205° |
| 2026-04-13 18:53 | 5.12513 | -52.41112 | 10094 ft | 331 kts | 205° |
| 2026-04-13 18:54 | 5.10488 | -52.42185 | 9893 ft | 328 kts | 205° |
| 2026-04-13 18:54 | 5.08474 | -52.43249 | 9650 ft | 325 kts | 205° |
| 2026-04-13 18:54 | 5.06500 | -52.44294 | 9497 ft | 317 kts | 206° |
| 2026-04-13 18:54 | 5.04588 | -52.45306 | 9399 ft | 306 kts | 205° |
| 2026-04-13 18:55 | 5.02733 | -52.46289 | 9275 ft | 298 kts | 205° |
| 2026-04-13 18:55 | 5.00921 | -52.47248 | 9162 ft | 291 kts | 205° |
| 2026-04-13 18:55 | 4.99141 | -52.48191 | 8981 ft | 287 kts | 205° |
| 2026-04-13 18:55 | 4.97377 | -52.49124 | 8728 ft | 287 kts | 205° |
| 2026-04-13 18:56 | 4.95667 | -52.50071 | 8439 ft | 281 kts | 207° |
| 2026-04-13 18:56 | 4.93975 | -52.51049 | 7897 ft | 280 kts | 208° |
| 2026-04-13 18:56 | 4.92280 | -52.52034 | 7306 ft | 283 kts | 208° |
| 2026-04-13 18:56 | 4.90584 | -52.53017 | 6827 ft | 280 kts | 207° |
| 2026-04-13 18:57 | 4.88901 | -52.53992 | 6349 ft | 278 kts | 208° |
| 2026-04-13 18:57 | 4.87230 | -52.54956 | 5830 ft | 277 kts | 207° |
| 2026-04-13 18:57 | 4.85553 | -52.55921 | 5274 ft | 277 kts | 207° |
| 2026-04-13 18:57 | 4.83887 | -52.56879 | 4850 ft | 276 kts | 208° |
| 2026-04-13 18:58 | 4.82204 | -52.57819 | 4547 ft | 274 kts | 202° |
| 2026-04-13 18:58 | 4.80389 | -52.58186 | 4167 ft | 262 kts | 170° |
| 2026-04-13 18:58 | 4.78708 | -52.57689 | 3920 ft | 255 kts | 152° |
| 2026-04-13 18:58 | 4.77073 | -52.56935 | 3674 ft | 260 kts | 152° |
| 2026-04-13 18:59 | 4.75491 | -52.56162 | 3541 ft | 244 kts | 142° |
| 2026-04-13 18:59 | 4.74442 | -52.54956 | 3426 ft | 222 kts | 107° |
| 2026-04-13 18:59 | 4.74304 | -52.53509 | 3276 ft | 205 kts | 73° |
| 2026-04-13 18:59 | 4.74728 | -52.52183 | 3046 ft | 197 kts | 68° |
| 2026-04-13 19:00 | 4.75051 | -52.51336 | 2889 ft | 196 kts | 66° |
| 2026-04-13 19:00 | 4.75770 | -52.49697 | 2591 ft | 187 kts | 64° |
| 2026-04-13 19:00 | 4.76297 | -52.48546 | 2341 ft | 174 kts | 63° |
| 2026-04-13 19:00 | 4.76788 | -52.47480 | 2136 ft | 164 kts | 62° |
| 2026-04-13 19:01 | 4.77243 | -52.46487 | 1916 ft | 147 kts | 62° |
| 2026-04-13 19:01 | 4.77649 | -52.45605 | 1740 ft | 142 kts | 62° |
| 2026-04-13 19:01 | 4.78061 | -52.44707 | 1573 ft | 140 kts | 64° |
| 2026-04-13 19:01 | 4.78473 | -52.43810 | 1382 ft | 143 kts | 62° |
| 2026-04-13 19:02 | 4.78884 | -52.42912 | 1187 ft | 139 kts | 64° |
| 2026-04-13 19:02 | 4.79292 | -52.42019 | 997 ft | 144 kts | 63° |
| 2026-04-13 19:02 | 4.79700 | -52.41130 | 815 ft | 139 kts | 63° |
| 2026-04-13 19:02 | 4.80104 | -52.40254 | 662 ft | 143 kts | 61° |
| 2026-04-13 19:03 | 4.80526 | -52.39377 | 635 ft | 138 kts | 62° |
| 2026-04-13 19:03 | 4.80888 | -52.38518 | 337 ft | 128 kts | 60° |
| 2026-04-13 19:03 | 4.81252 | -52.37750 | 129 ft | 119 kts | 63° |
| 2026-04-13 19:03 | 4.81595 | -52.36999 | 36 ft | 113 kts | 63° |
| 2026-04-13 19:04 | 4.81875 | -52.36391 | 34 ft | 75 kts | 65° |
| 2026-04-13 19:04 | 4.82019 | -52.36080 | 34 ft | 36 kts | 65° |
| 2026-04-13 19:04 | 4.82090 | -52.35966 | 34 ft | 11 kts | 22° |
| 2026-04-13 19:04 | 4.82144 | -52.35995 | 34 ft | 9 kts | 306° |
| 2026-04-13 19:05 | 4.82179 | -52.36049 | 34 ft | 9 kts | 296° |
| 2026-04-13 19:05 | 4.82182 | -52.36113 | 33 ft | 10 kts | 251° |
| 2026-04-13 19:05 | 4.82156 | -52.36175 | 34 ft | 10 kts | 243° |
| 2026-04-13 19:05 | 4.82120 | -52.36234 | 34 ft | 10 kts | 239° |
| 2026-04-13 19:06 | 4.82127 | -52.36281 | 34 ft | 5 kts | 321° |
| 2026-04-13 19:06 | 4.82155 | -52.36296 | 34 ft | 5 kts | 335° |
| 2026-04-13 19:06 | 4.82171 | -52.36303 | 34 ft | 2 kts | 336° |
| 2026-04-13 19:06 | 4.82175 | -52.36304 | 34 ft | 0 kts | 336° |